Impacts TAF Board INFO
FOR SITUATIONAL AWARENESS. NOT TO BE USED FOR FLIGHT PLANNING PURPOSES.
IDs:

KTPA - Tampa Intl Arpt, FL, US

Issued at 2320 UTC 24 Feb 2018
Updated at 0155 UTC 25 Feb 2018
Potential Impact None Slight Moderate High
Time0153Z 25/02Z 25/03Z 25/04Z 25/05Z 25/06Z 25/07Z 25/08Z 25/09Z 25/10Z 25/11Z 25/12Z 25/13Z 25/14Z>>
Type OBS PRVL PRVL PRVL PRVL PRVL PRVL PRVL PRVL PRVL PRVL PRVL PRVL PRVL
VIS 10 >6 >6 >6 >6 >6 >6 >6 >6 >6 >6 >6 >6 >6
CIG -- -- -- -- -- -- -- -- -- -- -- -- -- --
Cover SCT FEW FEW FEW FEW FEW FEW FEW FEW FEW FEW FEW SCT SCT
FltCat VFR VFR VFR VFR VFR VFR VFR VFR VFR VFR VFR VFR VFR VFR
WX -- -- -- -- -- -- -- -- -- -- -- -- -- --
WDir VRB 140 140 140 140 140 140 140 140 140 140 140 150 150
WSpd 0 5 5 5 5 5 5 5 5 5 5 5 6 6
WGst -- -- -- -- -- -- -- -- -- -- -- -- -- --

Raw TAF
KTPA 242320Z 2500/2606 25006KT P6SM VCSH SCT040 BKN100
  FM250200 14005KT P6SM FEW040
  FM251300 15006KT P6SM SCT020
  FM251700 21008KT P6SM SCT040


Raw METAR
KTPA 250153Z 00000KT 10SM SCT050 23/19 A3014 RMK AO2 SLP206 T02330194
KTPA 250053Z 33003KT 10SM SCT050 24/19 A3013 RMK AO2 SLP203 T02390189
KTPA 242353Z 28006KT 10SM SCT045 BKN110 25/19 A3013 RMK AO2 SLP201 T02500189 10289 20250 53000
KTPA 242253Z 25007KT 10SM SCT040 BKN110 26/18 A3012 RMK AO2 SLP199 T02610183

METAR Board
Radar Display
Forecast Discussion

FOR SITUATIONAL AWARENESS. NOT TO BE USED FOR FLIGHT PLANNING PURPOSES.